Terminal Aerodrome Forecast
Issued by NWS La Crosse, WI

Home | Current Version | Previous Version | Text Only | Print | Product List | Glossary On
Versions: 1 2 3 4 5 6 7 8 9 10 11 12 13 14 15 16 17 18
000
FTUS43 KARX 280520
TAFLSE
TAF
KLSE 280520Z 2806/2906 06006KT P6SM BKN020
     FM280900 04004KT 5SM BR OVC015
     FM281100 04005KT 3SM BR VCSH OVC010
     FM281500 04006KT P6SM VCSH BKN015
     FM281800 04006KT P6SM VCTS BKN020CB
     FM290100 03004KT P6SM BKN030=

USA.gov is the U.S. government's official web portal to all federal, state and local government web resources and services.